sensor_id;sensor_type;location;lat;lon;timestamp;pressure;altitude;pressure_sealevel;temperature;humidity
58686;BME280;44465;53.206;-6.106;2022-11-14T00:02:05;100643.72;;;18.27;59.50
58686;BME280;44465;53.206;-6.106;2022-11-14T00:04:50;100588.28;;;17.95;59.60
58686;BME280;44465;53.206;-6.106;2022-11-14T00:07:34;100629.63;;;18.25;59.69
58686;BME280;44465;53.206;-6.106;2022-11-14T00:10:18;100626.16;;;18.23;59.54
58686;BME280;44465;53.206;-6.106;2022-11-14T00:13:03;100626.75;;;18.29;59.50
58686;BME280;44465;53.206;-6.106;2022-11-14T00:15:49;100599.34;;;18.07;59.48
58686;BME280;44465;53.206;-6.106;2022-11-14T00:18:33;100568.19;;;17.88;59.32
58686;BME280;44465;53.206;-6.106;2022-11-14T00:21:17;100628.63;;;18.27;59.35
58686;BME280;44465;53.206;-6.106;2022-11-14T00:24:02;100622.34;;;18.28;59.58
58686;BME280;44465;53.206;-6.106;2022-11-14T00:26:46;100613.63;;;18.25;59.59
58686;BME280;44465;53.206;-6.106;2022-11-14T00:29:30;100607.28;;;18.27;59.58
58686;BME280;44465;53.206;-6.106;2022-11-14T00:32:14;100598.00;;;18.17;59.36
58686;BME280;44465;53.206;-6.106;2022-11-14T00:34:58;100606.50;;;18.25;59.52
58686;BME280;44465;53.206;-6.106;2022-11-14T00:37:42;100619.59;;;18.30;59.37
58686;BME280;44465;53.206;-6.106;2022-11-14T00:40:26;100596.34;;;18.14;59.60
58686;BME280;44465;53.206;-6.106;2022-11-14T00:43:11;100573.94;;;18.00;59.49
58686;BME280;44465;53.206;-6.106;2022-11-14T00:45:56;100616.31;;;18.25;59.38
58686;BME280;44465;53.206;-6.106;2022-11-14T00:48:40;100596.13;;;18.19;59.46
58686;BME280;44465;53.206;-6.106;2022-11-14T00:51:24;100606.50;;;18.25;59.58
58686;BME280;44465;53.206;-6.106;2022-11-14T00:54:08;100611.97;;;18.22;59.50
58686;BME280;44465;53.206;-6.106;2022-11-14T00:56:52;100600.72;;;18.16;59.58
58686;BME280;44465;53.206;-6.106;2022-11-14T00:59:36;100596.69;;;18.26;59.47
58686;BME280;44465;53.206;-6.106;2022-11-14T01:02:21;100591.44;;;18.24;59.25
58686;BME280;44465;53.206;-6.106;2022-11-14T01:05:05;100600.16;;;18.28;59.46
58686;BME280;44465;53.206;-6.106;2022-11-14T01:07:49;100563.81;;;18.06;59.60
58686;BME280;44465;53.206;-6.106;2022-11-14T01:10:38;100526.72;;;17.82;59.38
58686;BME280;44465;53.206;-6.106;2022-11-14T01:13:21;100580.28;;;18.16;59.51
58686;BME280;44465;53.206;-6.106;2022-11-14T01:16:06;100568.00;;;18.12;59.61
58686;BME280;44465;53.206;-6.106;2022-11-14T01:18:50;100590.38;;;18.28;59.62
58686;BME280;44465;53.206;-6.106;2022-11-14T01:21:34;100582.50;;;18.25;59.47
58686;BME280;44465;53.206;-6.106;2022-11-14T01:24:18;100585.97;;;18.27;59.38
58686;BME280;44465;53.206;-6.106;2022-11-14T01:27:02;100579.91;;;18.24;59.49
58686;BME280;44465;53.206;-6.106;2022-11-14T01:29:47;100579.97;;;18.22;59.60
58686;BME280;44465;53.206;-6.106;2022-11-14T01:32:31;100582.41;;;18.27;59.43
58686;BME280;44465;53.206;-6.106;2022-11-14T01:35:15;100583.44;;;18.24;59.59
58686;BME280;44465;53.206;-6.106;2022-11-14T01:37:59;100573.91;;;18.19;59.43
58686;BME280;44465;53.206;-6.106;2022-11-14T01:40:45;100562.25;;;18.21;59.53
58686;BME280;44465;53.206;-6.106;2022-11-14T01:43:36;100563.97;;;18.22;59.31
58686;BME280;44465;53.206;-6.106;2022-11-14T01:46:25;100574.41;;;18.27;59.64
58686;BME280;44465;53.206;-6.106;2022-11-14T01:49:20;100576.09;;;18.29;59.65
58686;BME280;44465;53.206;-6.106;2022-11-14T01:52:08;100489.34;;;17.84;59.32
58686;BME280;44465;53.206;-6.106;2022-11-14T01:54:57;100511.22;;;17.91;59.60
58686;BME280;44465;53.206;-6.106;2022-11-14T01:57:45;100536.81;;;18.14;59.45
58686;BME280;44465;53.206;-6.106;2022-11-14T02:00:30;100538.47;;;18.17;59.43
58686;BME280;44465;53.206;-6.106;2022-11-14T02:03:15;100543.81;;;18.17;59.57
58686;BME280;44465;53.206;-6.106;2022-11-14T02:06:00;100539.34;;;18.17;59.42
58686;BME280;44465;53.206;-6.106;2022-11-14T02:08:45;100561.03;;;18.28;59.63
58686;BME280;44465;53.206;-6.106;2022-11-14T02:11:33;100549.00;;;18.20;59.54
58686;BME280;44465;53.206;-6.106;2022-11-14T02:14:18;100557.56;;;18.26;59.42
58686;BME280;44465;53.206;-6.106;2022-11-14T02:17:04;100547.97;;;18.22;59.15
58686;BME280;44465;53.206;-6.106;2022-11-14T02:19:53;100553.91;;;18.29;59.35
58686;BME280;44465;53.206;-6.106;2022-11-14T02:22:39;100543.53;;;18.23;59.33
58686;BME280;44465;53.206;-6.106;2022-11-14T02:25:25;100563.63;;;18.30;59.59
58686;BME280;44465;53.206;-6.106;2022-11-14T02:28:10;100561.97;;;18.27;59.44
58686;BME280;44465;53.206;-6.106;2022-11-14T02:30:54;100560.09;;;18.29;59.55
58686;BME280;44465;53.206;-6.106;2022-11-14T02:33:38;100504.78;;;17.96;59.46
58686;BME280;44465;53.206;-6.106;2022-11-14T02:36:22;100526.81;;;18.19;59.43
58686;BME280;44465;53.206;-6.106;2022-11-14T02:39:06;100539.72;;;18.28;59.33
58686;BME280;44465;53.206;-6.106;2022-11-14T02:41:50;100538.84;;;18.28;59.51
58686;BME280;44465;53.206;-6.106;2022-11-14T02:44:34;100516.16;;;18.19;59.37
58686;BME280;44465;53.206;-6.106;2022-11-14T02:47:18;100516.94;;;18.21;59.41
58686;BME280;44465;53.206;-6.106;2022-11-14T02:50:03;100521.19;;;18.25;59.22
58686;BME280;44465;53.206;-6.106;2022-11-14T02:52:47;100521.06;;;18.28;59.45
58686;BME280;44465;53.206;-6.106;2022-11-14T02:55:31;100513.19;;;18.25;59.34
58686;BME280;44465;53.206;-6.106;2022-11-14T02:58:15;100507.06;;;18.23;59.50
58686;BME280;44465;53.206;-6.106;2022-11-14T03:00:59;100503.69;;;18.20;59.57
58686;BME280;44465;53.206;-6.106;2022-11-14T03:03:43;100507.66;;;18.30;59.35
58686;BME280;44465;53.206;-6.106;2022-11-14T03:06:27;100503.31;;;18.27;59.28
58686;BME280;44465;53.206;-6.106;2022-11-14T03:09:11;100496.72;;;18.17;59.12
58686;BME280;44465;53.206;-6.106;2022-11-14T03:11:55;100513.91;;;18.29;59.38
58686;BME280;44465;53.206;-6.106;2022-11-14T03:14:39;100477.56;;;18.09;59.47
58686;BME280;44465;53.206;-6.106;2022-11-14T03:17:23;100484.41;;;18.14;59.27
58686;BME280;44465;53.206;-6.106;2022-11-14T03:20:08;100493.59;;;18.26;59.38
58686;BME280;44465;53.206;-6.106;2022-11-14T03:22:52;100500.66;;;18.27;59.21
58686;BME280;44465;53.206;-6.106;2022-11-14T03:25:36;100495.34;;;18.27;59.48
58686;BME280;44465;53.206;-6.106;2022-11-14T03:28:20;100474.59;;;18.15;59.51
58686;BME280;44465;53.206;-6.106;2022-11-14T03:31:05;100476.41;;;18.14;59.48
58686;BME280;44465;53.206;-6.106;2022-11-14T03:33:49;100496.28;;;18.26;59.32
58686;BME280;44465;53.206;-6.106;2022-11-14T03:36:33;100504.97;;;18.30;59.47
58686;BME280;44465;53.206;-6.106;2022-11-14T03:39:17;100506.84;;;18.28;59.31
58686;BME280;44465;53.206;-6.106;2022-11-14T03:42:02;100488.72;;;18.17;59.30
58686;BME280;44465;53.206;-6.106;2022-11-14T03:44:46;100500.66;;;18.27;59.23
58686;BME280;44465;53.206;-6.106;2022-11-14T03:47:30;100489.06;;;18.28;59.43
58686;BME280;44465;53.206;-6.106;2022-11-14T03:50:14;100451.84;;;18.08;59.25
58686;BME280;44465;53.206;-6.106;2022-11-14T03:52:58;100471.63;;;18.21;59.27
58686;BME280;44465;53.206;-6.106;2022-11-14T03:55:43;100481.13;;;18.27;59.36
58686;BME280;44465;53.206;-6.106;2022-11-14T03:58:27;100464.72;;;18.17;59.18
58686;BME280;44465;53.206;-6.106;2022-11-14T04:01:11;100475.88;;;18.25;59.37
58686;BME280;44465;53.206;-6.106;2022-11-14T04:03:55;100470.69;;;18.22;59.33
58686;BME280;44465;53.206;-6.106;2022-11-14T04:06:39;100451.28;;;18.20;59.15
58686;BME280;44465;53.206;-6.106;2022-11-14T04:09:23;100446.88;;;18.19;59.27
58686;BME280;44465;53.206;-6.106;2022-11-14T04:12:07;100460.81;;;18.24;59.35
58686;BME280;44465;53.206;-6.106;2022-11-14T04:14:51;100453.75;;;18.23;59.33
58686;BME280;44465;53.206;-6.106;2022-11-14T04:17:35;100427.56;;;18.14;59.53
58686;BME280;44465;53.206;-6.106;2022-11-14T04:20:19;100398.25;;;17.95;59.30
58686;BME280;44465;53.206;-6.106;2022-11-14T04:23:03;100463.34;;;18.27;59.29
58686;BME280;44465;53.206;-6.106;2022-11-14T04:25:47;100443.69;;;18.11;59.35
58686;BME280;44465;53.206;-6.106;2022-11-14T04:28:31;100465.34;;;18.22;59.28
58686;BME280;44465;53.206;-6.106;2022-11-14T04:31:15;100461.63;;;18.26;59.39
58686;BME280;44465;53.206;-6.106;2022-11-14T04:33:59;100446.00;;;18.19;59.35
58686;BME280;44465;53.206;-6.106;2022-11-14T04:36:43;100465.13;;;18.27;59.08
58686;BME280;44465;53.206;-6.106;2022-11-14T04:39:27;100456.59;;;18.20;59.34
58686;BME280;44465;53.206;-6.106;2022-11-14T04:42:11;100464.28;;;18.26;59.16
58686;BME280;44465;53.206;-6.106;2022-11-14T04:44:55;100451.41;;;18.17;59.38
58686;BME280;44465;53.206;-6.106;2022-11-14T04:47:43;100465.31;;;18.24;59.31
58686;BME280;44465;53.206;-6.106;2022-11-14T04:50:27;100427.16;;;18.04;59.31
58686;BME280;44465;53.206;-6.106;2022-11-14T04:53:11;100430.44;;;18.09;59.38
58686;BME280;44465;53.206;-6.106;2022-11-14T04:55:55;100448.59;;;18.20;59.40
58686;BME280;44465;53.206;-6.106;2022-11-14T04:58:39;100436.25;;;18.18;59.40
58686;BME280;44465;53.206;-6.106;2022-11-14T05:01:23;100420.81;;;18.07;59.33
58686;BME280;44465;53.206;-6.106;2022-11-14T05:04:07;100451.09;;;18.23;59.07
58686;BME280;44465;53.206;-6.106;2022-11-14T05:06:51;100456.38;;;18.25;59.07
58686;BME280;44465;53.206;-6.106;2022-11-14T05:09:35;100456.59;;;18.20;59.28
58686;BME280;44465;53.206;-6.106;2022-11-14T05:12:19;100453.75;;;18.23;59.38
58686;BME280;44465;53.206;-6.106;2022-11-14T05:15:04;100462.56;;;18.25;59.21
58686;BME280;44465;53.206;-6.106;2022-11-14T05:17:48;100411.53;;;17.96;59.06
58686;BME280;44465;53.206;-6.106;2022-11-14T05:20:32;100397.69;;;17.88;59.16
58686;BME280;44465;53.206;-6.106;2022-11-14T05:23:22;100461.63;;;18.26;59.31
58686;BME280;44465;53.206;-6.106;2022-11-14T05:26:09;100427.78;;;18.09;59.16
58686;BME280;44465;53.206;-6.106;2022-11-14T05:28:53;100448.75;;;18.17;59.15
58686;BME280;44465;53.206;-6.106;2022-11-14T05:31:37;100407.53;;;18.05;59.42
58686;BME280;44465;53.206;-6.106;2022-11-14T05:34:21;100412.59;;;18.11;59.26
58686;BME280;44465;53.206;-6.106;2022-11-14T05:37:05;100421.94;;;18.20;59.34
58686;BME280;44465;53.206;-6.106;2022-11-14T05:39:49;100409.56;;;18.19;59.15
58686;BME280;44465;53.206;-6.106;2022-11-14T05:42:33;100424.38;;;18.25;59.16
58686;BME280;44465;53.206;-6.106;2022-11-14T05:45:17;100417.56;;;18.19;59.24
58686;BME280;44465;53.206;-6.106;2022-11-14T05:48:01;100406.16;;;18.16;59.18
58686;BME280;44465;53.206;-6.106;2022-11-14T05:50:46;100403.00;;;18.07;59.33
58686;BME280;44465;53.206;-6.106;2022-11-14T05:53:31;100425.22;;;18.25;59.29
58686;BME280;44465;53.206;-6.106;2022-11-14T05:56:16;100420.84;;;18.24;59.26
58686;BME280;44465;53.206;-6.106;2022-11-14T05:59:00;100425.22;;;18.25;59.23
58686;BME280;44465;53.206;-6.106;2022-11-14T06:01:44;100405.78;;;18.23;59.35
58686;BME280;44465;53.206;-6.106;2022-11-14T06:04:28;100406.56;;;18.25;59.36
58686;BME280;44465;53.206;-6.106;2022-11-14T06:07:12;100398.91;;;18.19;59.43
58686;BME280;44465;53.206;-6.106;2022-11-14T06:09:56;100387.59;;;18.14;59.45
58686;BME280;44465;53.206;-6.106;2022-11-14T06:12:40;100395.31;;;18.20;59.14
58686;BME280;44465;53.206;-6.106;2022-11-14T06:15:24;100397.31;;;18.15;59.41
58686;BME280;44465;53.206;-6.106;2022-11-14T06:18:08;100391.66;;;18.21;59.50
58686;BME280;44465;53.206;-6.106;2022-11-14T06:20:52;100343.19;;;17.95;59.40
58686;BME280;44465;53.206;-6.106;2022-11-14T06:23:37;100390.81;;;18.21;59.28
58686;BME280;44465;53.206;-6.106;2022-11-14T06:26:21;100395.13;;;18.23;59.06
58686;BME280;44465;53.206;-6.106;2022-11-14T06:29:06;100367.06;;;18.16;59.04
58686;BME280;44465;53.206;-6.106;2022-11-14T06:31:50;100360.00;;;18.15;59.08
58686;BME280;44465;53.206;-6.106;2022-11-14T06:34:34;100352.94;;;18.14;59.21
58686;BME280;44465;53.206;-6.106;2022-11-14T06:37:18;100326.91;;;18.02;59.12
58686;BME280;44465;53.206;-6.106;2022-11-14T06:40:02;100354.53;;;18.18;59.36
58686;BME280;44465;53.206;-6.106;2022-11-14T06:42:47;100340.88;;;18.07;59.29
58686;BME280;44465;53.206;-6.106;2022-11-14T06:45:31;100363.13;;;18.23;59.55
58686;BME280;44465;53.206;-6.106;2022-11-14T06:48:16;100341.66;;;18.09;59.33
58686;BME280;44465;53.206;-6.106;2022-11-14T06:51:02;100321.22;;;17.90;59.46
58686;BME280;44465;53.206;-6.106;2022-11-14T06:53:46;100363.69;;;18.12;59.36
58686;BME280;44465;53.206;-6.106;2022-11-14T06:56:30;100383.91;;;18.17;59.17
58686;BME280;44465;53.206;-6.106;2022-11-14T06:59:14;100382.34;;;18.12;59.15
58686;BME280;44465;53.206;-6.106;2022-11-14T07:01:58;100385.53;;;18.02;59.16
58686;BME280;44465;53.206;-6.106;2022-11-14T07:04:42;100415.97;;;18.15;59.39
58686;BME280;44465;53.206;-6.106;2022-11-14T07:07:26;100421.22;;;18.17;59.11
58686;BME280;44465;53.206;-6.106;2022-11-14T07:10:10;100434.47;;;18.18;59.32
58686;BME280;44465;53.206;-6.106;2022-11-14T07:12:54;100441.53;;;18.19;59.45
58686;BME280;44465;53.206;-6.106;2022-11-14T07:15:38;100452.03;;;18.22;59.48
58686;BME280;44465;53.206;-6.106;2022-11-14T07:18:22;100452.81;;;18.24;59.21
58686;BME280;44465;53.206;-6.106;2022-11-14T07:21:06;100454.88;;;18.19;58.99
58686;BME280;44465;53.206;-6.106;2022-11-14T07:23:51;100456.66;;;18.19;59.35
58686;BME280;44465;53.206;-6.106;2022-11-14T07:26:35;100457.00;;;18.11;59.36
58686;BME280;44465;53.206;-6.106;2022-11-14T07:29:19;100469.94;;;18.20;59.06
58686;BME280;44465;53.206;-6.106;2022-11-14T07:32:09;100445.41;;;18.12;59.36
58686;BME280;44465;53.206;-6.106;2022-11-14T07:34:53;100450.75;;;18.12;59.45
58686;BME280;44465;53.206;-6.106;2022-11-14T07:37:36;100449.09;;;18.09;59.22
58686;BME280;44465;53.206;-6.106;2022-11-14T07:40:20;100429.97;;;18.01;59.03
58686;BME280;44465;53.206;-6.106;2022-11-14T07:43:04;100469.75;;;18.23;59.37
58686;BME280;44465;53.206;-6.106;2022-11-14T07:45:49;100466.16;;;18.24;59.12
58686;BME280;44465;53.206;-6.106;2022-11-14T07:48:33;100465.22;;;18.25;59.16
58686;BME280;44465;53.206;-6.106;2022-11-14T07:51:18;100461.84;;;18.22;59.35
58686;BME280;44465;53.206;-6.106;2022-11-14T07:54:03;100463.47;;;18.24;59.37
58686;BME280;44465;53.206;-6.106;2022-11-14T07:56:47;100449.44;;;18.21;59.25
58686;BME280;44465;53.206;-6.106;2022-11-14T07:59:31;100458.38;;;18.20;59.17
58686;BME280;44465;53.206;-6.106;2022-11-14T08:02:15;100416.78;;;17.98;59.12
58686;BME280;44465;53.206;-6.106;2022-11-14T08:04:59;100437.44;;;18.12;59.25
58686;BME280;44465;53.206;-6.106;2022-11-14T08:07:44;100447.81;;;18.18;59.35
58686;BME280;44465;53.206;-6.106;2022-11-14T08:10:28;100445.28;;;18.15;59.21
58686;BME280;44465;53.206;-6.106;2022-11-14T08:13:12;100447.00;;;18.16;59.24
58686;BME280;44465;53.206;-6.106;2022-11-14T08:15:56;100423.72;;;18.02;59.19
58686;BME280;44465;53.206;-6.106;2022-11-14T08:18:42;100453.13;;;18.18;59.25
58686;BME280;44465;53.206;-6.106;2022-11-14T08:21:26;100420.25;;;18.00;59.17
58686;BME280;44465;53.206;-6.106;2022-11-14T08:24:10;100444.34;;;18.16;59.39
58686;BME280;44465;53.206;-6.106;2022-11-14T08:26:54;100450.16;;;18.24;59.47
58686;BME280;44465;53.206;-6.106;2022-11-14T08:29:38;100404.97;;;18.04;59.32
58686;BME280;44465;53.206;-6.106;2022-11-14T08:32:22;100429.16;;;18.18;59.43
58686;BME280;44465;53.206;-6.106;2022-11-14T08:35:07;100411.09;;;18.06;59.57
58686;BME280;44465;53.206;-6.106;2022-11-14T08:37:51;100434.16;;;18.24;59.06
58686;BME280;44465;53.206;-6.106;2022-11-14T08:40:35;100414.00;;;18.19;59.14
58686;BME280;44465;53.206;-6.106;2022-11-14T08:43:19;100396.75;;;18.08;59.44
58686;BME280;44465;53.206;-6.106;2022-11-14T08:46:04;100414.16;;;18.16;59.38
58686;BME280;44465;53.206;-6.106;2022-11-14T08:48:48;100435.91;;;18.25;59.53
58686;BME280;44465;53.206;-6.106;2022-11-14T08:51:32;100425.59;;;18.18;59.23
58686;BME280;44465;53.206;-6.106;2022-11-14T08:54:16;100414.16;;;18.16;59.20
58686;BME280;44465;53.206;-6.106;2022-11-14T08:57:00;100400.78;;;18.17;59.40
58686;BME280;44465;53.206;-6.106;2022-11-14T08:59:44;100390.34;;;18.12;59.22
58686;BME280;44465;53.206;-6.106;2022-11-14T09:02:28;100394.41;;;18.20;59.28
58686;BME280;44465;53.206;-6.106;2022-11-14T09:05:12;100386.41;;;18.02;59.42
58686;BME280;44465;53.206;-6.106;2022-11-14T09:07:57;100418.97;;;18.26;59.52
58686;BME280;44465;53.206;-6.106;2022-11-14T09:10:41;100378.97;;;18.09;59.44
58686;BME280;44465;53.206;-6.106;2022-11-14T09:13:25;100388.25;;;18.19;59.10
58686;BME280;44465;53.206;-6.106;2022-11-14T09:16:10;100407.38;;;18.27;59.44
58686;BME280;44465;53.206;-6.106;2022-11-14T09:18:54;100379.59;;;18.14;59.38
58686;BME280;44465;53.206;-6.106;2022-11-14T09:21:38;100398.16;;;18.16;59.26
58686;BME280;44465;53.206;-6.106;2022-11-14T09:24:22;100397.97;;;18.20;59.47
58686;BME280;44465;53.206;-6.106;2022-11-14T09:27:06;100389.22;;;18.17;59.34
58686;BME280;44465;53.206;-6.106;2022-11-14T09:29:50;100402.19;;;18.24;59.38
58686;BME280;44465;53.206;-6.106;2022-11-14T09:32:34;100402.03;;;18.27;59.48
58686;BME280;44465;53.206;-6.106;2022-11-14T09:35:18;100375.44;;;18.08;59.21
58686;BME280;44465;53.206;-6.106;2022-11-14T09:38:04;100386.28;;;18.23;59.64
58686;BME280;44465;53.206;-6.106;2022-11-14T09:47:15;100400.16;;;18.29;59.25
58686;BME280;44465;53.206;-6.106;2022-11-14T09:50:13;100378.34;;;18.21;59.44
58686;BME280;44465;53.206;-6.106;2022-11-14T09:53:03;100372.38;;;18.16;59.17
58686;BME280;44465;53.206;-6.106;2022-11-14T09:55:49;100370.03;;;18.10;59.32
58686;BME280;44465;53.206;-6.106;2022-11-14T09:58:33;100395.91;;;18.25;59.54
58686;BME280;44465;53.206;-6.106;2022-11-14T10:01:35;100391.66;;;18.21;59.41
58686;BME280;44465;53.206;-6.106;2022-11-14T10:10:55;100383.06;;;18.16;59.63
58686;BME280;44465;53.206;-6.106;2022-11-14T10:17:10;100390.72;;;18.22;59.63
58686;BME280;44465;53.206;-6.106;2022-11-14T10:20:19;100392.94;;;18.32;59.27
58686;BME280;44465;53.206;-6.106;2022-11-14T10:40:50;100406.13;;;18.35;59.65
58686;BME280;44465;53.206;-6.106;2022-11-14T10:43:42;100394.19;;;18.24;59.79
58686;BME280;44465;53.206;-6.106;2022-11-14T10:46:32;100405.41;;;18.31;59.64
58686;BME280;44465;53.206;-6.106;2022-11-14T10:49:23;100400.94;;;18.32;59.71
58686;BME280;44465;53.206;-6.106;2022-11-14T10:52:19;100399.00;;;18.35;59.58
58686;BME280;44465;53.206;-6.106;2022-11-14T10:55:13;100406.03;;;18.36;59.78
58686;BME280;44465;53.206;-6.106;2022-11-14T10:57:57;100369.50;;;18.21;59.56
58686;BME280;44465;53.206;-6.106;2022-11-14T11:00:41;100394.19;;;18.42;59.68
58686;BME280;44465;53.206;-6.106;2022-11-14T11:03:42;100368.31;;;18.26;59.51
58686;BME280;44465;53.206;-6.106;2022-11-14T11:06:27;100372.63;;;18.29;59.72
58686;BME280;44465;53.206;-6.106;2022-11-14T11:09:20;100379.53;;;18.33;59.79
58686;BME280;44465;53.206;-6.106;2022-11-14T11:15:29;100380.09;;;18.40;59.56
58686;BME280;44465;53.206;-6.106;2022-11-14T11:18:26;100384.41;;;18.42;59.67
58686;BME280;44465;53.206;-6.106;2022-11-14T11:21:13;100384.50;;;18.41;59.89
58686;BME280;44465;53.206;-6.106;2022-11-14T11:23:57;100380.81;;;18.43;60.02
58686;BME280;44465;53.206;-6.106;2022-11-14T11:26:41;100365.88;;;18.39;60.06
58686;BME280;44465;53.206;-6.106;2022-11-14T11:29:26;100364.97;;;18.40;59.64
58686;BME280;44465;53.206;-6.106;2022-11-14T11:32:10;100289.00;;;17.95;59.65
58686;BME280;44465;53.206;-6.106;2022-11-14T11:34:56;100351.72;;;18.39;59.60
58686;BME280;44465;53.206;-6.106;2022-11-14T11:37:55;100362.84;;;18.47;59.64
58686;BME280;44465;53.206;-6.106;2022-11-14T11:40:42;100361.91;;;18.48;59.56
58686;BME280;44465;53.206;-6.106;2022-11-14T11:49:36;100310.47;;;18.28;59.69
58686;BME280;44465;53.206;-6.106;2022-11-14T11:55:20;100299.03;;;18.26;60.18
58686;BME280;44465;53.206;-6.106;2022-11-14T11:58:15;100328.66;;;18.38;59.87
58686;BME280;44465;53.206;-6.106;2022-11-14T12:01:02;100324.25;;;18.37;59.95
58686;BME280;44465;53.206;-6.106;2022-11-14T12:03:53;100337.59;;;18.37;59.64
58686;BME280;44465;53.206;-6.106;2022-11-14T12:06:49;100338.28;;;18.40;59.67
58686;BME280;44465;53.206;-6.106;2022-11-14T12:09:39;100300.59;;;18.31;59.62
58686;BME280;44465;53.206;-6.106;2022-11-14T12:19:13;100328.03;;;18.50;59.50
58686;BME280;44465;53.206;-6.106;2022-11-14T12:22:07;100330.69;;;18.50;59.95
58686;BME280;44465;53.206;-6.106;2022-11-14T12:33:49;100301.66;;;18.44;60.27
58686;BME280;44465;53.206;-6.106;2022-11-14T12:36:42;100316.47;;;18.50;60.18
58686;BME280;44465;53.206;-6.106;2022-11-14T12:39:29;100312.03;;;18.50;60.09
58686;BME280;44465;53.206;-6.106;2022-11-14T12:42:18;100294.47;;;18.46;59.56
58686;BME280;44465;53.206;-6.106;2022-11-14T12:48:29;100293.38;;;18.50;59.73
58686;BME280;44465;53.206;-6.106;2022-11-14T12:57:45;100281.81;;;18.50;59.70
58686;BME280;44465;53.206;-6.106;2022-11-14T13:01:18;100279.84;;;18.53;59.88
58686;BME280;44465;53.206;-6.106;2022-11-14T13:15:34;100277.97;;;18.55;59.85
58686;BME280;44465;53.206;-6.106;2022-11-14T13:18:34;100244.03;;;18.41;59.56
58686;BME280;44465;53.206;-6.106;2022-11-14T13:24:06;100258.53;;;18.53;59.46
58686;BME280;44465;53.206;-6.106;2022-11-14T13:26:52;100242.75;;;18.49;59.78
58686;BME280;44465;53.206;-6.106;2022-11-14T13:50:28;100244.88;;;18.59;59.86
58686;BME280;44465;53.206;-6.106;2022-11-14T13:53:20;100248.38;;;18.60;59.68
58686;BME280;44465;53.206;-6.106;2022-11-14T14:05:11;100224.06;;;18.66;59.54
58686;BME280;44465;53.206;-6.106;2022-11-14T14:16:55;100202.81;;;18.65;59.64
58686;BME280;44465;53.206;-6.106;2022-11-14T14:32:28;100170.28;;;18.58;59.40
58686;BME280;44465;53.206;-6.106;2022-11-14T14:35:29;100185.59;;;18.70;59.33
58686;BME280;44465;53.206;-6.106;2022-11-14T14:38:22;100161.84;;;18.66;59.32
58686;BME280;44465;53.206;-6.106;2022-11-14T14:41:06;100167.63;;;18.74;59.46
58686;BME280;44465;53.206;-6.106;2022-11-14T14:43:53;100170.22;;;18.75;59.49
58686;BME280;44465;53.206;-6.106;2022-11-14T14:46:37;100155.84;;;18.62;59.79
58686;BME280;44465;53.206;-6.106;2022-11-14T14:49:43;100159.97;;;18.68;59.37
58686;BME280;44465;53.206;-6.106;2022-11-14T14:52:29;100094.31;;;18.33;59.53
58686;BME280;44465;53.206;-6.106;2022-11-14T14:55:20;100161.97;;;18.80;59.43
58686;BME280;44465;53.206;-6.106;2022-11-14T15:01:15;100133.31;;;18.68;59.21
58686;BME280;44465;53.206;-6.106;2022-11-14T15:04:04;100147.94;;;18.76;59.20
58686;BME280;44465;53.206;-6.106;2022-11-14T15:06:49;100125.03;;;18.72;59.13
58686;BME280;44465;53.206;-6.106;2022-11-14T15:09:34;100116.25;;;18.70;59.17
58686;BME280;44465;53.206;-6.106;2022-11-14T15:12:18;100119.59;;;18.74;59.13
58686;BME280;44465;53.206;-6.106;2022-11-14T15:15:03;100110.25;;;18.67;59.16
58686;BME280;44465;53.206;-6.106;2022-11-14T15:17:49;100116.94;;;18.74;59.12
58686;BME280;44465;53.206;-6.106;2022-11-14T15:20:33;100132.44;;;18.83;58.98
58686;BME280;44465;53.206;-6.106;2022-11-14T15:23:19;100108.44;;;18.67;59.29
58686;BME280;44465;53.206;-6.106;2022-11-14T15:26:10;100109.56;;;18.79;59.49
58686;BME280;44465;53.206;-6.106;2022-11-14T15:29:21;100104.22;;;18.79;59.25
58686;BME280;44465;53.206;-6.106;2022-11-14T15:32:05;100094.66;;;18.75;59.42
58686;BME280;44465;53.206;-6.106;2022-11-14T15:35:32;100083.31;;;18.71;59.24
58686;BME280;44465;53.206;-6.106;2022-11-14T15:38:21;100080.47;;;18.74;59.40
58686;BME280;44465;53.206;-6.106;2022-11-14T15:43:53;100077.72;;;18.76;59.23
58686;BME280;44465;53.206;-6.106;2022-11-14T15:46:42;100056.91;;;18.67;59.12
58686;BME280;44465;53.206;-6.106;2022-11-14T15:49:28;100067.91;;;18.76;59.60
58686;BME280;44465;53.206;-6.106;2022-11-14T15:52:23;100066.25;;;18.74;59.85
58686;BME280;44465;53.206;-6.106;2022-11-14T15:55:17;100057.25;;;18.76;59.77
58686;BME280;44465;53.206;-6.106;2022-11-14T15:58:02;100050.19;;;18.75;59.54
58686;BME280;44465;53.206;-6.106;2022-11-14T16:00:51;100028.69;;;18.63;59.62
58686;BME280;44465;53.206;-6.106;2022-11-14T16:03:36;100025.25;;;18.60;59.67
58686;BME280;44465;53.206;-6.106;2022-11-14T16:06:21;100053.81;;;18.74;59.75
58686;BME280;44465;53.206;-6.106;2022-11-14T16:09:05;100028.34;;;18.69;59.80
58686;BME280;44465;53.206;-6.106;2022-11-14T16:11:49;100034.47;;;18.71;59.55
58686;BME280;44465;53.206;-6.106;2022-11-14T16:14:33;100004.78;;;18.61;59.65
58686;BME280;44465;53.206;-6.106;2022-11-14T16:17:18;100020.91;;;18.74;59.61
58686;BME280;44465;53.206;-6.106;2022-11-14T16:20:09;100001.06;;;18.64;59.29
58686;BME280;44465;53.206;-6.106;2022-11-14T16:22:54;100021.88;;;18.73;59.09
58686;BME280;44465;53.206;-6.106;2022-11-14T16:25:39;99998.09;;;18.54;59.48
58686;BME280;44465;53.206;-6.106;2022-11-14T16:28:23;100019.19;;;18.73;59.22
58686;BME280;44465;53.206;-6.106;2022-11-14T16:31:14;100007.00;;;18.69;59.09
58686;BME280;44465;53.206;-6.106;2022-11-14T16:33:58;100013.38;;;18.66;59.48
58686;BME280;44465;53.206;-6.106;2022-11-14T16:36:42;100012.34;;;18.69;59.23
58686;BME280;44465;53.206;-6.106;2022-11-14T16:39:28;100008.72;;;18.70;59.41
58686;BME280;44465;53.206;-6.106;2022-11-14T16:42:13;99994.78;;;18.65;59.13